sensor_id;sensor_type;location;lat;lon;timestamp;P1;durP1;ratioP1;P2;durP2;ratioP2
64678;SDS011;51094;53.864;27.676;2023-03-13T00:01:32;0.40;;;0.40;;
64678;SDS011;51094;53.864;27.676;2023-03-13T00:04:01;0.40;;;0.40;;
64678;SDS011;51094;53.864;27.676;2023-03-13T00:06:32;0.25;;;0.25;;
64678;SDS011;51094;53.864;27.676;2023-03-13T00:09:02;0.35;;;0.35;;
64678;SDS011;51094;53.864;27.676;2023-03-13T00:11:31;0.30;;;0.30;;
64678;SDS011;51094;53.864;27.676;2023-03-13T00:13:59;0.52;;;0.52;;
64678;SDS011;51094;53.864;27.676;2023-03-13T00:16:28;0.40;;;0.40;;
64678;SDS011;51094;53.864;27.676;2023-03-13T00:18:56;0.30;;;0.30;;
64678;SDS011;51094;53.864;27.676;2023-03-13T00:21:24;0.30;;;0.30;;
64678;SDS011;51094;53.864;27.676;2023-03-13T00:23:53;0.30;;;0.30;;
64678;SDS011;51094;53.864;27.676;2023-03-13T00:26:21;0.40;;;0.40;;
64678;SDS011;51094;53.864;27.676;2023-03-13T00:28:50;0.32;;;0.32;;
64678;SDS011;51094;53.864;27.676;2023-03-13T00:31:19;0.30;;;0.30;;
64678;SDS011;51094;53.864;27.676;2023-03-13T00:33:49;0.50;;;0.50;;
64678;SDS011;51094;53.864;27.676;2023-03-13T00:36:19;0.35;;;0.35;;
64678;SDS011;51094;53.864;27.676;2023-03-13T00:38:47;0.80;;;0.80;;
64678;SDS011;51094;53.864;27.676;2023-03-13T00:41:19;0.30;;;0.30;;
64678;SDS011;51094;53.864;27.676;2023-03-13T00:43:51;0.30;;;0.30;;
64678;SDS011;51094;53.864;27.676;2023-03-13T00:46:20;0.30;;;0.30;;
64678;SDS011;51094;53.864;27.676;2023-03-13T00:48:49;0.63;;;0.63;;
64678;SDS011;51094;53.864;27.676;2023-03-13T00:51:17;0.40;;;0.40;;
64678;SDS011;51094;53.864;27.676;2023-03-13T00:53:46;0.30;;;0.30;;
64678;SDS011;51094;53.864;27.676;2023-03-13T00:56:14;0.35;;;0.35;;
64678;SDS011;51094;53.864;27.676;2023-03-13T00:58:43;0.50;;;0.50;;
64678;SDS011;51094;53.864;27.676;2023-03-13T01:03:43;0.47;;;0.47;;
64678;SDS011;51094;53.864;27.676;2023-03-13T01:06:14;0.30;;;0.30;;
64678;SDS011;51094;53.864;27.676;2023-03-13T01:08:42;0.30;;;0.30;;
64678;SDS011;51094;53.864;27.676;2023-03-13T01:11:10;0.40;;;0.40;;
64678;SDS011;51094;53.864;27.676;2023-03-13T01:13:39;0.63;;;0.63;;
64678;SDS011;51094;53.864;27.676;2023-03-13T01:16:11;0.40;;;0.40;;
64678;SDS011;51094;53.864;27.676;2023-03-13T01:18:41;0.50;;;0.50;;
64678;SDS011;51094;53.864;27.676;2023-03-13T01:23:37;0.55;;;0.55;;
64678;SDS011;51094;53.864;27.676;2023-03-13T01:26:04;2.00;;;2.00;;
64678;SDS011;51094;53.864;27.676;2023-03-13T01:28:33;1.17;;;1.17;;
64678;SDS011;51094;53.864;27.676;2023-03-13T01:31:10;1.10;;;1.10;;
64678;SDS011;51094;53.864;27.676;2023-03-13T01:33:43;0.80;;;0.80;;
64678;SDS011;51094;53.864;27.676;2023-03-13T01:36:13;0.75;;;0.75;;
64678;SDS011;51094;53.864;27.676;2023-03-13T01:38:41;0.55;;;0.55;;
64678;SDS011;51094;53.864;27.676;2023-03-13T01:41:09;0.38;;;0.38;;
64678;SDS011;51094;53.864;27.676;2023-03-13T01:43:38;0.70;;;0.70;;
64678;SDS011;51094;53.864;27.676;2023-03-13T01:46:18;0.73;;;0.73;;
64678;SDS011;51094;53.864;27.676;2023-03-13T01:54:08;0.40;;;0.40;;
64678;SDS011;51094;53.864;27.676;2023-03-13T01:59:36;0.50;;;0.50;;
64678;SDS011;51094;53.864;27.676;2023-03-13T02:02:07;0.70;;;0.70;;
64678;SDS011;51094;53.864;27.676;2023-03-13T02:04:35;0.73;;;0.73;;
64678;SDS011;51094;53.864;27.676;2023-03-13T02:07:06;0.60;;;0.60;;
64678;SDS011;51094;53.864;27.676;2023-03-13T02:09:38;1.00;;;1.00;;
64678;SDS011;51094;53.864;27.676;2023-03-13T02:14:38;1.05;;;1.05;;
64678;SDS011;51094;53.864;27.676;2023-03-13T02:17:09;1.30;;;1.30;;
64678;SDS011;51094;53.864;27.676;2023-03-13T02:19:47;1.30;;;1.30;;
64678;SDS011;51094;53.864;27.676;2023-03-13T02:22:23;1.40;;;1.40;;
64678;SDS011;51094;53.864;27.676;2023-03-13T02:25:07;1.10;;;1.10;;
64678;SDS011;51094;53.864;27.676;2023-03-13T02:28:14;1.30;;;1.30;;
64678;SDS011;51094;53.864;27.676;2023-03-13T02:30:43;1.77;;;1.77;;
64678;SDS011;51094;53.864;27.676;2023-03-13T02:33:11;2.90;;;2.90;;
64678;SDS011;51094;53.864;27.676;2023-03-13T02:35:40;2.50;;;2.40;;
64678;SDS011;51094;53.864;27.676;2023-03-13T02:38:11;1.42;;;1.42;;
64678;SDS011;51094;53.864;27.676;2023-03-13T02:40:43;1.23;;;1.23;;
64678;SDS011;51094;53.864;27.676;2023-03-13T02:43:17;1.30;;;1.30;;
64678;SDS011;51094;53.864;27.676;2023-03-13T02:46:08;2.70;;;2.70;;
64678;SDS011;51094;53.864;27.676;2023-03-13T02:48:41;2.47;;;2.47;;
64678;SDS011;51094;53.864;27.676;2023-03-13T02:51:12;2.80;;;2.80;;
64678;SDS011;51094;53.864;27.676;2023-03-13T02:53:44;1.90;;;1.90;;
64678;SDS011;51094;53.864;27.676;2023-03-13T02:56:14;1.35;;;1.35;;
64678;SDS011;51094;53.864;27.676;2023-03-13T02:58:46;1.25;;;1.25;;
64678;SDS011;51094;53.864;27.676;2023-03-13T03:01:19;1.60;;;1.60;;
64678;SDS011;51094;53.864;27.676;2023-03-13T03:03:46;1.10;;;1.10;;
64678;SDS011;51094;53.864;27.676;2023-03-13T03:06:14;1.50;;;1.50;;
64678;SDS011;51094;53.864;27.676;2023-03-13T03:08:42;1.70;;;1.70;;
64678;SDS011;51094;53.864;27.676;2023-03-13T03:11:11;1.65;;;1.65;;
64678;SDS011;51094;53.864;27.676;2023-03-13T03:13:39;1.10;;;1.10;;
64678;SDS011;51094;53.864;27.676;2023-03-13T03:16:10;0.90;;;0.90;;
64678;SDS011;51094;53.864;27.676;2023-03-13T03:18:39;1.02;;;1.02;;
64678;SDS011;51094;53.864;27.676;2023-03-13T03:21:06;0.93;;;0.93;;
64678;SDS011;51094;53.864;27.676;2023-03-13T03:23:37;1.02;;;1.02;;
64678;SDS011;51094;53.864;27.676;2023-03-13T03:26:05;0.60;;;0.60;;
64678;SDS011;51094;53.864;27.676;2023-03-13T03:28:33;0.70;;;0.70;;
64678;SDS011;51094;53.864;27.676;2023-03-13T03:31:04;0.75;;;0.75;;
64678;SDS011;51094;53.864;27.676;2023-03-13T03:33:34;1.30;;;1.30;;
64678;SDS011;51094;53.864;27.676;2023-03-13T03:38:36;3.80;;;3.80;;
64678;SDS011;51094;53.864;27.676;2023-03-13T03:41:07;3.30;;;3.30;;
64678;SDS011;51094;53.864;27.676;2023-03-13T03:43:35;0.70;;;0.70;;
64678;SDS011;51094;53.864;27.676;2023-03-13T03:46:04;0.80;;;0.80;;
64678;SDS011;51094;53.864;27.676;2023-03-13T03:48:33;0.80;;;0.80;;
64678;SDS011;51094;53.864;27.676;2023-03-13T03:51:04;0.55;;;0.55;;
64678;SDS011;51094;53.864;27.676;2023-03-13T03:53:36;0.70;;;0.70;;
64678;SDS011;51094;53.864;27.676;2023-03-13T03:56:03;0.88;;;0.88;;
64678;SDS011;51094;53.864;27.676;2023-03-13T03:58:31;0.50;;;0.50;;
64678;SDS011;51094;53.864;27.676;2023-03-13T04:01:14;0.80;;;0.80;;
64678;SDS011;51094;53.864;27.676;2023-03-13T04:03:41;0.70;;;0.70;;
64678;SDS011;51094;53.864;27.676;2023-03-13T04:06:09;0.80;;;0.80;;
64678;SDS011;51094;53.864;27.676;2023-03-13T04:08:37;0.75;;;0.75;;
64678;SDS011;51094;53.864;27.676;2023-03-13T04:11:05;0.90;;;0.90;;
64678;SDS011;51094;53.864;27.676;2023-03-13T04:13:36;0.70;;;0.70;;
64678;SDS011;51094;53.864;27.676;2023-03-13T04:16:06;1.20;;;1.20;;
64678;SDS011;51094;53.864;27.676;2023-03-13T04:18:35;0.93;;;0.93;;
64678;SDS011;51094;53.864;27.676;2023-03-13T04:21:03;0.90;;;0.90;;
64678;SDS011;51094;53.864;27.676;2023-03-13T04:23:52;1.30;;;1.30;;
64678;SDS011;51094;53.864;27.676;2023-03-13T04:26:20;2.40;;;2.40;;
64678;SDS011;51094;53.864;27.676;2023-03-13T04:28:50;3.22;;;3.13;;
64678;SDS011;51094;53.864;27.676;2023-03-13T04:31:25;4.10;;;4.00;;
64678;SDS011;51094;53.864;27.676;2023-03-13T04:34:24;3.03;;;2.92;;
64678;SDS011;51094;53.864;27.676;2023-03-13T04:37:13;1.80;;;1.80;;
64678;SDS011;51094;53.864;27.676;2023-03-13T04:39:49;2.00;;;2.00;;
64678;SDS011;51094;53.864;27.676;2023-03-13T04:42:36;4.50;;;4.40;;
64678;SDS011;51094;53.864;27.676;2023-03-13T04:45:40;2.03;;;1.95;;
64678;SDS011;51094;53.864;27.676;2023-03-13T04:48:43;2.38;;;2.38;;
64678;SDS011;51094;53.864;27.676;2023-03-13T04:51:28;2.60;;;2.60;;
64678;SDS011;51094;53.864;27.676;2023-03-13T04:54:27;2.33;;;2.33;;
64678;SDS011;51094;53.864;27.676;2023-03-13T04:57:05;2.30;;;2.20;;
64678;SDS011;51094;53.864;27.676;2023-03-13T05:00:10;2.00;;;2.00;;
64678;SDS011;51094;53.864;27.676;2023-03-13T05:02:46;2.35;;;2.35;;
64678;SDS011;51094;53.864;27.676;2023-03-13T05:05:45;1.70;;;1.70;;
64678;SDS011;51094;53.864;27.676;2023-03-13T05:08:30;1.50;;;1.50;;
64678;SDS011;51094;53.864;27.676;2023-03-13T05:11:18;2.17;;;2.08;;
64678;SDS011;51094;53.864;27.676;2023-03-13T05:14:05;1.98;;;1.98;;
64678;SDS011;51094;53.864;27.676;2023-03-13T05:16:52;2.80;;;2.70;;
64678;SDS011;51094;53.864;27.676;2023-03-13T05:19:47;3.47;;;3.38;;
64678;SDS011;51094;53.864;27.676;2023-03-13T05:22:32;2.72;;;2.63;;
64678;SDS011;51094;53.864;27.676;2023-03-13T05:25:15;2.40;;;2.40;;
64678;SDS011;51094;53.864;27.676;2023-03-13T05:28:00;2.20;;;2.20;;
64678;SDS011;51094;53.864;27.676;2023-03-13T05:30:50;1.60;;;1.60;;
64678;SDS011;51094;53.864;27.676;2023-03-13T05:33:29;1.73;;;1.67;;
64678;SDS011;51094;53.864;27.676;2023-03-13T05:36:15;1.58;;;1.58;;
64678;SDS011;51094;53.864;27.676;2023-03-13T05:38:57;1.88;;;1.83;;
64678;SDS011;51094;53.864;27.676;2023-03-13T05:41:47;1.90;;;1.90;;
64678;SDS011;51094;53.864;27.676;2023-03-13T05:44:22;1.90;;;1.90;;
64678;SDS011;51094;53.864;27.676;2023-03-13T05:46:49;1.85;;;1.85;;
64678;SDS011;51094;53.864;27.676;2023-03-13T05:49:38;1.70;;;1.70;;
64678;SDS011;51094;53.864;27.676;2023-03-13T05:52:23;1.50;;;1.50;;
64678;SDS011;51094;53.864;27.676;2023-03-13T05:55:17;1.55;;;1.55;;
64678;SDS011;51094;53.864;27.676;2023-03-13T05:58:03;1.10;;;1.10;;
64678;SDS011;51094;53.864;27.676;2023-03-13T06:01:10;1.10;;;1.10;;
64678;SDS011;51094;53.864;27.676;2023-03-13T06:03:50;1.30;;;1.30;;
64678;SDS011;51094;53.864;27.676;2023-03-13T06:06:18;1.50;;;1.50;;
64678;SDS011;51094;53.864;27.676;2023-03-13T06:08:50;1.23;;;1.23;;
64678;SDS011;51094;53.864;27.676;2023-03-13T06:11:20;1.40;;;1.40;;
64678;SDS011;51094;53.864;27.676;2023-03-13T06:13:47;1.48;;;1.48;;
64678;SDS011;51094;53.864;27.676;2023-03-13T06:16:32;1.30;;;1.30;;
64678;SDS011;51094;53.864;27.676;2023-03-13T06:19:18;1.30;;;1.30;;
64678;SDS011;51094;53.864;27.676;2023-03-13T06:21:45;1.30;;;1.30;;
64678;SDS011;51094;53.864;27.676;2023-03-13T06:24:12;1.60;;;1.60;;
64678;SDS011;51094;53.864;27.676;2023-03-13T06:26:39;1.30;;;1.30;;
64678;SDS011;51094;53.864;27.676;2023-03-13T06:29:06;1.48;;;1.48;;
64678;SDS011;51094;53.864;27.676;2023-03-13T06:31:36;1.70;;;1.70;;
64678;SDS011;51094;53.864;27.676;2023-03-13T06:34:03;1.60;;;1.60;;
64678;SDS011;51094;53.864;27.676;2023-03-13T06:36:30;1.33;;;1.33;;
64678;SDS011;51094;53.864;27.676;2023-03-13T06:38:57;1.40;;;1.40;;
64678;SDS011;51094;53.864;27.676;2023-03-13T06:41:24;1.50;;;1.50;;
64678;SDS011;51094;53.864;27.676;2023-03-13T06:43:51;1.45;;;1.45;;
64678;SDS011;51094;53.864;27.676;2023-03-13T06:46:19;1.17;;;1.17;;
64678;SDS011;51094;53.864;27.676;2023-03-13T06:48:48;1.13;;;1.13;;
64678;SDS011;51094;53.864;27.676;2023-03-13T06:51:17;1.40;;;1.40;;
64678;SDS011;51094;53.864;27.676;2023-03-13T06:53:46;1.40;;;1.40;;
64678;SDS011;51094;53.864;27.676;2023-03-13T06:56:14;1.30;;;1.30;;
64678;SDS011;51094;53.864;27.676;2023-03-13T06:58:41;1.27;;;1.27;;
64678;SDS011;51094;53.864;27.676;2023-03-13T07:01:09;1.48;;;1.48;;
64678;SDS011;51094;53.864;27.676;2023-03-13T07:03:38;1.40;;;1.40;;
64678;SDS011;51094;53.864;27.676;2023-03-13T07:06:08;2.22;;;2.17;;
64678;SDS011;51094;53.864;27.676;2023-03-13T07:08:36;2.05;;;2.03;;
64678;SDS011;51094;53.864;27.676;2023-03-13T07:11:04;2.10;;;2.00;;
64678;SDS011;51094;53.864;27.676;2023-03-13T07:13:38;5.07;;;4.97;;
64678;SDS011;51094;53.864;27.676;2023-03-13T07:16:06;2.10;;;2.10;;
64678;SDS011;51094;53.864;27.676;2023-03-13T07:18:35;2.65;;;2.65;;
64678;SDS011;51094;53.864;27.676;2023-03-13T07:21:02;2.33;;;2.33;;
64678;SDS011;51094;53.864;27.676;2023-03-13T07:23:31;2.05;;;2.05;;
64678;SDS011;51094;53.864;27.676;2023-03-13T07:26:06;1.40;;;1.30;;
64678;SDS011;51094;53.864;27.676;2023-03-13T07:28:36;1.00;;;1.00;;
64678;SDS011;51094;53.864;27.676;2023-03-13T07:33:43;0.90;;;0.90;;
64678;SDS011;51094;53.864;27.676;2023-03-13T07:36:12;0.80;;;0.80;;
64678;SDS011;51094;53.864;27.676;2023-03-13T07:38:40;0.82;;;0.82;;
64678;SDS011;51094;53.864;27.676;2023-03-13T07:41:10;0.80;;;0.80;;
64678;SDS011;51094;53.864;27.676;2023-03-13T07:43:41;1.38;;;1.38;;
64678;SDS011;51094;53.864;27.676;2023-03-13T07:46:08;1.00;;;1.00;;
64678;SDS011;51094;53.864;27.676;2023-03-13T07:48:39;1.00;;;1.00;;
64678;SDS011;51094;53.864;27.676;2023-03-13T07:51:10;0.90;;;0.90;;
64678;SDS011;51094;53.864;27.676;2023-03-13T07:53:39;1.13;;;1.13;;
64678;SDS011;51094;53.864;27.676;2023-03-13T07:56:06;1.10;;;1.10;;
64678;SDS011;51094;53.864;27.676;2023-03-13T07:58:37;1.02;;;1.02;;
64678;SDS011;51094;53.864;27.676;2023-03-13T08:01:13;0.93;;;0.93;;
64678;SDS011;51094;53.864;27.676;2023-03-13T08:03:45;1.25;;;1.20;;
64678;SDS011;51094;53.864;27.676;2023-03-13T08:06:20;0.80;;;0.80;;
64678;SDS011;51094;53.864;27.676;2023-03-13T08:08:49;0.85;;;0.85;;
64678;SDS011;51094;53.864;27.676;2023-03-13T08:11:21;1.05;;;1.05;;
64678;SDS011;51094;53.864;27.676;2023-03-13T08:13:51;0.90;;;0.90;;
64678;SDS011;51094;53.864;27.676;2023-03-13T08:16:19;0.88;;;0.88;;
64678;SDS011;51094;53.864;27.676;2023-03-13T08:18:49;1.10;;;1.10;;
64678;SDS011;51094;53.864;27.676;2023-03-13T08:21:19;0.73;;;0.73;;
64678;SDS011;51094;53.864;27.676;2023-03-13T08:23:54;1.10;;;1.10;;
64678;SDS011;51094;53.864;27.676;2023-03-13T08:26:23;1.77;;;1.77;;
64678;SDS011;51094;53.864;27.676;2023-03-13T08:28:55;1.30;;;1.30;;
64678;SDS011;51094;53.864;27.676;2023-03-13T08:31:25;1.20;;;1.20;;
64678;SDS011;51094;53.864;27.676;2023-03-13T08:33:57;1.10;;;1.10;;
64678;SDS011;51094;53.864;27.676;2023-03-13T08:36:29;1.92;;;1.92;;
64678;SDS011;51094;53.864;27.676;2023-03-13T08:39:03;1.63;;;1.63;;
64678;SDS011;51094;53.864;27.676;2023-03-13T08:41:32;2.58;;;2.47;;
64678;SDS011;51094;53.864;27.676;2023-03-13T08:44:02;1.70;;;1.70;;
64678;SDS011;51094;53.864;27.676;2023-03-13T08:46:31;1.70;;;1.70;;
64678;SDS011;51094;53.864;27.676;2023-03-13T08:48:59;2.63;;;2.60;;
64678;SDS011;51094;53.864;27.676;2023-03-13T08:51:27;2.70;;;2.60;;
64678;SDS011;51094;53.864;27.676;2023-03-13T08:53:55;1.70;;;1.60;;
64678;SDS011;51094;53.864;27.676;2023-03-13T08:56:24;1.60;;;1.60;;
64678;SDS011;51094;53.864;27.676;2023-03-13T08:58:58;1.20;;;1.20;;
64678;SDS011;51094;53.864;27.676;2023-03-13T09:01:28;1.50;;;1.50;;
64678;SDS011;51094;53.864;27.676;2023-03-13T09:03:56;1.40;;;1.40;;
64678;SDS011;51094;53.864;27.676;2023-03-13T09:06:27;1.92;;;1.92;;
64678;SDS011;51094;53.864;27.676;2023-03-13T09:08:55;1.40;;;1.40;;
64678;SDS011;51094;53.864;27.676;2023-03-13T09:11:23;1.70;;;1.70;;
64678;SDS011;51094;53.864;27.676;2023-03-13T09:13:51;1.70;;;1.70;;
64678;SDS011;51094;53.864;27.676;2023-03-13T09:16:19;1.67;;;1.67;;
64678;SDS011;51094;53.864;27.676;2023-03-13T09:18:48;1.70;;;1.70;;
64678;SDS011;51094;53.864;27.676;2023-03-13T09:21:17;1.38;;;1.38;;
64678;SDS011;51094;53.864;27.676;2023-03-13T09:23:46;1.80;;;1.80;;
64678;SDS011;51094;53.864;27.676;2023-03-13T09:26:14;1.40;;;1.40;;
64678;SDS011;51094;53.864;27.676;2023-03-13T09:28:41;1.80;;;1.80;;
64678;SDS011;51094;53.864;27.676;2023-03-13T09:31:12;1.30;;;1.30;;
64678;SDS011;51094;53.864;27.676;2023-03-13T09:33:42;1.58;;;1.50;;
64678;SDS011;51094;53.864;27.676;2023-03-13T09:36:10;1.70;;;1.70;;
64678;SDS011;51094;53.864;27.676;2023-03-13T09:38:38;1.95;;;1.85;;
64678;SDS011;51094;53.864;27.676;2023-03-13T09:41:22;1.48;;;1.45;;
64678;SDS011;51094;53.864;27.676;2023-03-13T09:52:24;1.70;;;1.70;;
64678;SDS011;51094;53.864;27.676;2023-03-13T09:55:04;1.60;;;1.60;;
64678;SDS011;51094;53.864;27.676;2023-03-13T10:00:50;1.52;;;1.52;;
64678;SDS011;51094;53.864;27.676;2023-03-13T10:03:25;1.60;;;1.60;;
64678;SDS011;51094;53.864;27.676;2023-03-13T10:05:55;1.60;;;1.60;;
64678;SDS011;51094;53.864;27.676;2023-03-13T10:08:26;1.60;;;1.60;;
64678;SDS011;51094;53.864;27.676;2023-03-13T10:19:19;2.75;;;2.65;;
64678;SDS011;51094;53.864;27.676;2023-03-13T10:21:52;2.75;;;2.67;;
64678;SDS011;51094;53.864;27.676;2023-03-13T10:24:26;1.90;;;1.90;;
64678;SDS011;51094;53.864;27.676;2023-03-13T10:26:56;1.80;;;1.80;;
64678;SDS011;51094;53.864;27.676;2023-03-13T10:29:24;2.50;;;2.40;;
64678;SDS011;51094;53.864;27.676;2023-03-13T10:31:57;2.67;;;2.58;;
64678;SDS011;51094;53.864;27.676;2023-03-13T10:34:26;1.80;;;1.80;;
64678;SDS011;51094;53.864;27.676;2023-03-13T10:37:14;1.50;;;1.50;;
64678;SDS011;51094;53.864;27.676;2023-03-13T10:39:45;1.48;;;1.48;;
64678;SDS011;51094;53.864;27.676;2023-03-13T10:42:30;1.50;;;1.50;;
64678;SDS011;51094;53.864;27.676;2023-03-13T10:45:02;1.52;;;1.52;;
64678;SDS011;51094;53.864;27.676;2023-03-13T10:47:31;2.08;;;2.08;;
64678;SDS011;51094;53.864;27.676;2023-03-13T10:50:00;1.67;;;1.67;;
64678;SDS011;51094;53.864;27.676;2023-03-13T10:55:11;1.80;;;1.80;;
64678;SDS011;51094;53.864;27.676;2023-03-13T10:58:02;1.60;;;1.60;;
64678;SDS011;51094;53.864;27.676;2023-03-13T11:03:18;2.35;;;2.25;;
64678;SDS011;51094;53.864;27.676;2023-03-13T11:10:54;2.30;;;2.22;;
64678;SDS011;51094;53.864;27.676;2023-03-13T11:13:38;1.92;;;1.83;;
64678;SDS011;51094;53.864;27.676;2023-03-13T11:16:18;1.77;;;1.77;;
64678;SDS011;51094;53.864;27.676;2023-03-13T11:21:48;1.77;;;1.77;;
64678;SDS011;51094;53.864;27.676;2023-03-13T11:24:39;1.48;;;1.48;;
64678;SDS011;51094;53.864;27.676;2023-03-13T11:27:33;1.70;;;1.70;;
64678;SDS011;51094;53.864;27.676;2023-03-13T11:30:41;2.05;;;1.95;;
64678;SDS011;51094;53.864;27.676;2023-03-13T11:38:27;1.77;;;1.77;;
64678;SDS011;51094;53.864;27.676;2023-03-13T11:41:03;1.90;;;1.90;;
64678;SDS011;51094;53.864;27.676;2023-03-13T11:43:37;2.15;;;2.10;;
64678;SDS011;51094;53.864;27.676;2023-03-13T11:49:43;2.30;;;2.30;;
64678;SDS011;51094;53.864;27.676;2023-03-13T11:55:24;2.00;;;2.00;;
64678;SDS011;51094;53.864;27.676;2023-03-13T12:00:29;2.22;;;2.22;;
64678;SDS011;51094;53.864;27.676;2023-03-13T12:05:43;2.70;;;2.60;;
64678;SDS011;51094;53.864;27.676;2023-03-13T12:08:25;2.13;;;2.03;;
64678;SDS011;51094;53.864;27.676;2023-03-13T12:11:08;2.20;;;2.20;;
64678;SDS011;51094;53.864;27.676;2023-03-13T12:13:43;2.25;;;2.25;;
64678;SDS011;51094;53.864;27.676;2023-03-13T12:16:42;2.60;;;2.50;;
64678;SDS011;51094;53.864;27.676;2023-03-13T12:19:15;2.35;;;2.25;;
64678;SDS011;51094;53.864;27.676;2023-03-13T12:21:49;2.40;;;2.40;;
64678;SDS011;51094;53.864;27.676;2023-03-13T12:26:53;2.58;;;2.47;;
64678;SDS011;51094;53.864;27.676;2023-03-13T12:29:54;2.40;;;2.40;;
64678;SDS011;51094;53.864;27.676;2023-03-13T12:32:33;2.20;;;2.20;;
64678;SDS011;51094;53.864;27.676;2023-03-13T12:35:18;2.30;;;2.30;;
64678;SDS011;51094;53.864;27.676;2023-03-13T12:48:35;2.90;;;2.80;;
64678;SDS011;51094;53.864;27.676;2023-03-13T12:59:37;2.30;;;2.30;;
64678;SDS011;51094;53.864;27.676;2023-03-13T13:02:12;2.75;;;2.65;;
64678;SDS011;51094;53.864;27.676;2023-03-13T13:04:45;2.50;;;2.40;;
64678;SDS011;51094;53.864;27.676;2023-03-13T13:07:33;2.70;;;2.60;;
64678;SDS011;51094;53.864;27.676;2023-03-13T13:12:36;2.72;;;2.63;;
64678;SDS011;51094;53.864;27.676;2023-03-13T13:15:10;2.83;;;2.83;;
64678;SDS011;51094;53.864;27.676;2023-03-13T13:20:24;3.00;;;2.90;;
64678;SDS011;51094;53.864;27.676;2023-03-13T13:25:47;2.53;;;2.53;;
64678;SDS011;51094;53.864;27.676;2023-03-13T13:30:44;2.53;;;2.53;;
64678;SDS011;51094;53.864;27.676;2023-03-13T13:35:45;2.58;;;2.58;;
64678;SDS011;51094;53.864;27.676;2023-03-13T13:43:24;2.60;;;2.60;;
64678;SDS011;51094;53.864;27.676;2023-03-13T13:46:00;2.83;;;2.83;;
64678;SDS011;51094;53.864;27.676;2023-03-13T13:48:32;2.47;;;2.47;;
64678;SDS011;51094;53.864;27.676;2023-03-13T13:59:01;3.42;;;3.33;;
64678;SDS011;51094;53.864;27.676;2023-03-13T14:01:37;2.90;;;2.80;;
64678;SDS011;51094;53.864;27.676;2023-03-13T14:04:12;2.57;;;2.57;;
64678;SDS011;51094;53.864;27.676;2023-03-13T14:06:43;2.60;;;2.60;;
64678;SDS011;51094;53.864;27.676;2023-03-13T14:25:47;2.88;;;2.88;;
64678;SDS011;51094;53.864;27.676;2023-03-13T14:28:17;3.00;;;3.00;;
64678;SDS011;51094;53.864;27.676;2023-03-13T14:30:53;3.30;;;3.20;;
64678;SDS011;51094;53.864;27.676;2023-03-13T14:33:24;2.90;;;2.90;;
64678;SDS011;51094;53.864;27.676;2023-03-13T14:35:54;2.88;;;2.88;;
64678;SDS011;51094;53.864;27.676;2023-03-13T14:38:24;2.83;;;2.83;;
64678;SDS011;51094;53.864;27.676;2023-03-13T14:40:53;3.20;;;3.10;;
64678;SDS011;51094;53.864;27.676;2023-03-13T14:43:24;3.40;;;3.30;;
64678;SDS011;51094;53.864;27.676;2023-03-13T14:48:52;3.60;;;3.50;;
64678;SDS011;51094;53.864;27.676;2023-03-13T14:51:24;3.60;;;3.60;;
64678;SDS011;51094;53.864;27.676;2023-03-13T14:53:57;3.47;;;3.38;;
64678;SDS011;51094;53.864;27.676;2023-03-13T14:56:35;3.90;;;3.80;;
64678;SDS011;51094;53.864;27.676;2023-03-13T14:59:11;3.97;;;3.95;;
64678;SDS011;51094;53.864;27.676;2023-03-13T15:01:42;3.97;;;3.90;;
64678;SDS011;51094;53.864;27.676;2023-03-13T15:04:10;3.85;;;3.75;;
64678;SDS011;51094;53.864;27.676;2023-03-13T15:06:38;4.18;;;4.07;;
64678;SDS011;51094;53.864;27.676;2023-03-13T15:09:18;4.00;;;3.90;;
64678;SDS011;51094;53.864;27.676;2023-03-13T15:11:55;4.07;;;3.97;;
64678;SDS011;51094;53.864;27.676;2023-03-13T15:17:02;4.07;;;3.97;;
64678;SDS011;51094;53.864;27.676;2023-03-13T15:19:36;4.00;;;3.90;;
64678;SDS011;51094;53.864;27.676;2023-03-13T15:22:02;3.72;;;3.72;;
64678;SDS011;51094;53.864;27.676;2023-03-13T15:24:29;3.70;;;3.70;;
64678;SDS011;51094;53.864;27.676;2023-03-13T15:26:56;3.78;;;3.70;;
64678;SDS011;51094;53.864;27.676;2023-03-13T15:29:23;3.85;;;3.75;;
64678;SDS011;51094;53.864;27.676;2023-03-13T15:31:50;3.80;;;3.72;;
64678;SDS011;51094;53.864;27.676;2023-03-13T15:34:17;4.03;;;3.92;;
64678;SDS011;51094;53.864;27.676;2023-03-13T15:36:50;3.80;;;3.70;;
64678;SDS011;51094;53.864;27.676;2023-03-13T15:39:17;4.00;;;3.90;;
64678;SDS011;51094;53.864;27.676;2023-03-13T15:41:45;3.85;;;3.85;;
64678;SDS011;51094;53.864;27.676;2023-03-13T15:44:12;3.70;;;3.70;;
64678;SDS011;51094;53.864;27.676;2023-03-13T15:46:39;3.80;;;3.70;;
64678;SDS011;51094;53.864;27.676;2023-03-13T15:49:08;3.90;;;3.80;;
64678;SDS011;51094;53.864;27.676;2023-03-13T15:51:38;4.10;;;4.00;;
64678;SDS011;51094;53.864;27.676;2023-03-13T15:54:05;4.18;;;4.07;;
64678;SDS011;51094;53.864;27.676;2023-03-13T15:56:33;4.30;;;4.20;;
64678;SDS011;51094;53.864;27.676;2023-03-13T15:59:12;4.10;;;4.00;;
64678;SDS011;51094;53.864;27.676;2023-03-13T16:01:40;4.10;;;4.00;;
64678;SDS011;51094;53.864;27.676;2023-03-13T16:04:10;4.47;;;4.38;;
64678;SDS011;51094;53.864;27.676;2023-03-13T16:06:37;4.03;;;3.92;;
64678;SDS011;51094;53.864;27.676;2023-03-13T16:09:04;4.25;;;4.15;;
64678;SDS011;51094;53.864;27.676;2023-03-13T16:11:32;3.97;;;3.97;;
64678;SDS011;51094;53.864;27.676;2023-03-13T16:13:59;4.03;;;3.92;;
64678;SDS011;51094;53.864;27.676;2023-03-13T16:16:28;4.13;;;4.03;;
64678;SDS011;51094;53.864;27.676;2023-03-13T16:18:57;5.00;;;4.90;;
64678;SDS011;51094;53.864;27.676;2023-03-13T16:21:29;5.25;;;5.15;;
64678;SDS011;51094;53.864;27.676;2023-03-13T16:23:57;5.53;;;5.43;;
64678;SDS011;51094;53.864;27.676;2023-03-13T16:26:25;4.90;;;4.80;;
64678;SDS011;51094;53.864;27.676;2023-03-13T16:28:54;4.72;;;4.63;;
64678;SDS011;51094;53.864;27.676;2023-03-13T16:31:22;4.57;;;4.47;;
64678;SDS011;51094;53.864;27.676;2023-03-13T16:33:51;4.57;;;4.47;;
64678;SDS011;51094;53.864;27.676;2023-03-13T16:36:22;4.60;;;4.50;;
64678;SDS011;51094;53.864;27.676;2023-03-13T16:38:50;4.60;;;4.50;;
64678;SDS011;51094;53.864;27.676;2023-03-13T16:41:18;4.90;;;4.80;;
64678;SDS011;51094;53.864;27.676;2023-03-13T16:43:47;5.43;;;5.32;;
64678;SDS011;51094;53.864;27.676;2023-03-13T16:48:43;6.82;;;6.72;;
64678;SDS011;51094;53.864;27.676;2023-03-13T16:51:13;7.07;;;6.97;;
64678;SDS011;51094;53.864;27.676;2023-03-13T16:53:43;5.90;;;5.80;;
64678;SDS011;51094;53.864;27.676;2023-03-13T16:56:23;5.68;;;5.57;;
64678;SDS011;51094;53.864;27.676;2023-03-13T16:59:00;5.15;;;5.05;;
64678;SDS011;51094;53.864;27.676;2023-03-13T17:01:36;4.97;;;4.88;;
64678;SDS011;51094;53.864;27.676;2023-03-13T17:04:09;4.93;;;4.82;;
64678;SDS011;51094;53.864;27.676;2023-03-13T17:06:38;5.25;;;5.15;;
64678;SDS011;51094;53.864;27.676;2023-03-13T17:09:09;4.75;;;4.65;;
64678;SDS011;51094;53.864;27.676;2023-03-13T17:11:39;5.28;;;5.18;;
64678;SDS011;51094;53.864;27.676;2023-03-13T17:14:06;4.95;;;4.85;;
64678;SDS011;51094;53.864;27.676;2023-03-13T17:16:34;5.15;;;5.05;;
64678;SDS011;51094;53.864;27.676;2023-03-13T17:19:04;4.70;;;4.60;;
64678;SDS011;51094;53.864;27.676;2023-03-13T17:21:50;4.53;;;4.43;;
64678;SDS011;51094;53.864;27.676;2023-03-13T17:24:18;5.05;;;4.95;;
64678;SDS011;51094;53.864;27.676;2023-03-13T17:26:44;5.00;;;4.90;;
64678;SDS011;51094;53.864;27.676;2023-03-13T17:29:13;4.72;;;4.63;;
64678;SDS011;51094;53.864;27.676;2023-03-13T17:31:44;5.00;;;4.90;;